De Tour Village, Michigan
Current Conditions -  °F | °C
As of 4:35 PM on Wednesday 17 Dec 2014 (Local Time) from KDRM Reporting Station
Light Snow Light Snow  
Wind Chill: 19°   Ceiling: 1800
Heat Index: 25°   Visibility: 2.5mi
Dew Point: 22°   Wind: 5mph
Humidity: 91%   Direction: 330°NNW
Pressure: 29.97"   Gusts: NA
Location:  45.99°N, 83.9°W
Report Text: KDRM 172135Z AUTO 33004KT 2 1/2SM -SN SCT011 BKN018 OVC023 M04/M05 A2997 RMK AO2 T10411053
Loading
Personal Weather Stations






























Interactive Weather Map New forecast layout! Learn more

10-Day Weather Forecast

Advertisements
Track Severe Weather on mobile